createdAt,value
2022-10-11T00:02:08.044Z,8.60
2022-10-11T00:04:36.090Z,8.60
2022-10-11T00:07:04.036Z,8.60
2022-10-11T00:09:32.214Z,8.50
2022-10-11T00:12:00.532Z,8.60
2022-10-11T00:14:30.132Z,8.50
2022-10-11T00:16:58.045Z,8.50
2022-10-11T00:19:26.060Z,8.50
2022-10-11T00:21:53.992Z,8.50
2022-10-11T00:24:22.328Z,8.50
2022-10-11T00:26:50.281Z,8.40
2022-10-11T00:29:18.167Z,8.40
2022-10-11T00:31:47.469Z,8.40
2022-10-11T00:34:18.000Z,8.40
2022-10-11T00:36:46.234Z,8.40
2022-10-11T00:39:14.680Z,8.30
2022-10-11T00:41:42.922Z,8.30
2022-10-11T00:44:14.026Z,8.30
2022-10-11T00:46:45.672Z,8.30
2022-10-11T00:49:22.442Z,8.30
2022-10-11T00:51:54.517Z,8.30
2022-10-11T00:54:26.382Z,8.20
2022-10-11T00:56:58.615Z,8.20
2022-10-11T00:59:30.814Z,8.20
2022-10-11T01:01:59.220Z,8.20
2022-10-11T01:04:28.592Z,8.20
2022-10-11T01:06:57.138Z,8.20
2022-10-11T01:09:25.870Z,8.10
2022-10-11T01:11:56.036Z,8.10
2022-10-11T01:14:56.797Z,8.10
2022-10-11T01:17:33.973Z,8.10
2022-10-11T01:20:26.056Z,8.10
2022-10-11T01:23:17.835Z,8.10
2022-10-11T01:25:59.944Z,8.00
2022-10-11T01:28:43.230Z,8.00
2022-10-11T01:31:19.311Z,8.00
2022-10-11T01:33:52.928Z,8.00
2022-10-11T01:36:28.729Z,8.00
2022-10-11T01:39:03.644Z,8.00
2022-10-11T01:41:38.449Z,8.00
2022-10-11T01:44:08.998Z,7.90
2022-10-11T01:46:38.439Z,7.90
2022-10-11T01:49:06.757Z,7.90
2022-10-11T01:51:38.858Z,7.90
2022-10-11T01:54:18.074Z,7.90
2022-10-11T01:57:01.204Z,7.90
2022-10-11T01:59:42.873Z,7.90
2022-10-11T02:02:29.009Z,7.90
2022-10-11T02:05:01.683Z,7.90
2022-10-11T02:07:35.298Z,7.80
2022-10-11T02:10:08.994Z,7.80
2022-10-11T02:12:41.368Z,7.80
2022-10-11T02:15:12.580Z,7.80
2022-10-11T02:17:45.886Z,7.80
2022-10-11T02:20:19.977Z,7.80
2022-10-11T02:22:50.934Z,7.80
2022-10-11T02:25:23.904Z,7.80
2022-10-11T02:27:55.883Z,7.80
2022-10-11T02:30:24.442Z,7.70
2022-10-11T02:32:55.563Z,7.70
2022-10-11T02:35:27.689Z,7.70
2022-10-11T02:38:05.558Z,7.70
2022-10-11T02:40:36.129Z,7.70
2022-10-11T02:43:08.709Z,7.70
2022-10-11T02:45:39.425Z,7.60
2022-10-11T02:48:11.652Z,7.60
2022-10-11T02:50:40.632Z,7.60
2022-10-11T02:53:09.001Z,7.60
2022-10-11T02:55:37.233Z,7.60
2022-10-11T02:58:05.419Z,7.60
2022-10-11T03:00:33.488Z,7.60
2022-10-11T03:03:01.485Z,7.60
2022-10-11T03:05:30.756Z,7.60
2022-10-11T03:07:58.719Z,7.50
2022-10-11T03:10:26.682Z,7.50
2022-10-11T03:12:54.574Z,7.50
2022-10-11T03:15:22.491Z,7.50
2022-10-11T03:17:50.594Z,7.50
2022-10-11T03:20:18.665Z,7.50
2022-10-11T03:22:48.002Z,7.50
2022-10-11T03:25:15.938Z,7.50
2022-10-11T03:27:43.846Z,7.50
2022-10-11T03:30:16.191Z,7.50
2022-10-11T03:32:46.070Z,7.40
2022-10-11T03:35:14.479Z,7.40
2022-10-11T03:37:42.388Z,7.40
2022-10-11T03:40:13.621Z,7.40
2022-10-11T03:42:41.852Z,7.40
2022-10-11T03:45:10.746Z,7.40
2022-10-11T03:47:39.880Z,7.40
2022-10-11T03:50:10.366Z,7.40
2022-10-11T03:52:38.236Z,7.40
2022-10-11T03:55:07.251Z,7.30
2022-10-11T03:57:36.601Z,7.30
2022-10-11T04:00:06.039Z,7.30
2022-10-11T04:02:38.961Z,7.30
2022-10-11T04:05:07.748Z,7.30
2022-10-11T04:07:35.753Z,7.30
2022-10-11T04:10:03.667Z,7.30
2022-10-11T04:12:31.626Z,7.30
2022-10-11T04:15:00.898Z,7.20
2022-10-11T04:17:28.774Z,7.20
2022-10-11T04:19:56.762Z,7.20
2022-10-11T04:22:25.630Z,7.20
2022-10-11T04:24:53.631Z,7.20
2022-10-11T04:27:21.871Z,7.20
2022-10-11T04:29:49.859Z,7.20
2022-10-11T04:32:19.154Z,7.20
2022-10-11T04:34:47.105Z,7.20
2022-10-11T04:37:15.166Z,7.20
2022-10-11T04:39:43.096Z,7.10
2022-10-11T04:42:11.302Z,7.20
2022-10-11T04:44:39.410Z,7.10
2022-10-11T04:47:07.340Z,7.10
2022-10-11T04:49:36.599Z,7.10
2022-10-11T04:52:04.592Z,7.10
2022-10-11T04:54:32.558Z,7.10
2022-10-11T04:57:00.519Z,7.10
2022-10-11T04:59:28.466Z,7.10
2022-10-11T05:01:56.490Z,7.10
2022-10-11T05:04:24.362Z,7.10
2022-10-11T05:06:53.624Z,7.10
2022-10-11T05:09:21.800Z,7.00
2022-10-11T05:11:49.999Z,7.00
2022-10-11T05:14:17.881Z,7.00
2022-10-11T05:16:45.819Z,7.00
2022-10-11T05:19:13.919Z,7.00
2022-10-11T05:21:41.868Z,7.00
2022-10-11T05:24:11.189Z,7.00
2022-10-11T05:26:39.070Z,7.00
2022-10-11T05:29:07.311Z,7.00
2022-10-11T05:31:35.293Z,7.00
2022-10-11T05:34:03.209Z,7.00
2022-10-11T05:36:31.137Z,7.00
2022-10-11T05:38:59.106Z,7.00
2022-10-11T05:41:29.221Z,7.00
2022-10-11T05:43:57.108Z,7.00
2022-10-11T05:46:25.106Z,7.00
2022-10-11T05:48:53.069Z,7.00
2022-10-11T05:51:21.045Z,7.00
2022-10-11T05:53:49.202Z,7.00
2022-10-11T05:56:21.075Z,7.00
2022-10-11T05:58:50.666Z,7.00
2022-10-11T06:01:23.710Z,7.00
2022-10-11T06:03:52.070Z,7.00
2022-10-11T06:06:21.161Z,6.90
2022-10-11T06:08:49.902Z,7.00
2022-10-11T06:11:19.627Z,7.00
2022-10-11T06:13:48.958Z,7.00
2022-10-11T06:16:18.208Z,7.00
2022-10-11T06:18:46.268Z,7.00
2022-10-11T06:21:15.436Z,7.00
2022-10-11T06:23:43.441Z,7.00
2022-10-11T06:26:11.999Z,7.00
2022-10-11T06:28:40.002Z,7.00
2022-10-11T06:31:08.273Z,7.00
2022-10-11T06:33:37.978Z,7.00
2022-10-11T06:36:08.725Z,7.00
2022-10-11T06:38:41.024Z,7.00
2022-10-11T06:41:13.584Z,7.00
2022-10-11T06:43:41.558Z,7.00
2022-10-11T06:46:09.742Z,7.00
2022-10-11T06:48:43.348Z,7.00
2022-10-11T06:51:11.386Z,7.00
2022-10-11T06:53:39.776Z,7.00
2022-10-11T06:56:10.362Z,7.10
2022-10-11T06:58:38.869Z,7.10
2022-10-11T07:01:09.818Z,7.10
2022-10-11T07:03:38.027Z,7.20
2022-10-11T07:06:09.643Z,7.20
2022-10-11T07:08:38.439Z,7.20
2022-10-11T07:11:08.544Z,7.20
2022-10-11T07:13:37.102Z,7.30
2022-10-11T07:16:06.601Z,7.30
2022-10-11T07:18:35.305Z,7.30
2022-10-11T07:21:04.260Z,7.40
2022-10-11T07:23:33.564Z,7.40
2022-10-11T07:26:01.853Z,7.40
2022-10-11T07:28:31.145Z,7.50
2022-10-11T07:30:59.950Z,7.50
2022-10-11T07:33:27.917Z,7.50
2022-10-11T07:35:58.823Z,7.60
2022-10-11T07:38:27.029Z,7.60
2022-10-11T07:40:56.393Z,7.70
2022-10-11T07:43:24.433Z,7.70
2022-10-11T07:45:55.563Z,7.70
2022-10-11T07:48:23.836Z,7.80
2022-10-11T07:50:51.749Z,7.80
2022-10-11T07:53:19.751Z,7.90
2022-10-11T07:55:47.649Z,7.90
2022-10-11T07:58:16.922Z,8.00
2022-10-11T08:00:44.918Z,8.00
2022-10-11T08:03:14.020Z,8.10
2022-10-11T08:05:42.042Z,8.10
2022-10-11T08:08:10.192Z,8.20
2022-10-11T08:10:39.147Z,8.20
2022-10-11T08:13:07.556Z,8.30
2022-10-11T08:15:36.857Z,8.40
2022-10-11T08:18:05.526Z,8.40
2022-10-11T08:20:33.792Z,8.50
2022-10-11T08:23:01.807Z,8.50
2022-10-11T08:25:29.789Z,8.60
2022-10-11T08:27:57.772Z,8.70
2022-10-11T08:30:25.772Z,8.70
2022-10-11T08:32:55.059Z,8.80
2022-10-11T08:35:23.073Z,8.90
2022-10-11T08:37:50.975Z,9.00
2022-10-11T08:40:21.006Z,9.00
2022-10-11T08:42:54.775Z,9.10
2022-10-11T08:45:30.408Z,9.10
2022-10-11T08:48:07.508Z,9.20
2022-10-11T08:50:37.066Z,9.30
2022-10-11T08:53:08.765Z,9.40
2022-10-11T08:55:41.885Z,9.40
2022-10-11T08:58:14.049Z,9.50
2022-10-11T09:00:43.456Z,9.60
2022-10-11T09:03:27.521Z,9.60
2022-10-11T09:06:05.076Z,9.70
2022-10-11T09:08:44.325Z,9.80
2022-10-11T09:11:22.271Z,9.90
2022-10-11T09:14:07.011Z,9.90
2022-10-11T09:16:46.978Z,10.00
2022-10-11T09:19:42.904Z,10.10
2022-10-11T09:22:23.251Z,10.20
2022-10-11T09:25:23.186Z,10.30
2022-10-11T09:28:02.876Z,10.40
2022-10-11T09:30:32.669Z,10.40
2022-10-11T09:33:11.865Z,10.60
2022-10-11T09:35:43.954Z,10.60
2022-10-11T09:38:22.789Z,10.70
2022-10-11T09:41:01.506Z,10.80
2022-10-11T09:43:29.555Z,10.90
2022-10-11T09:45:57.599Z,11.00
2022-10-11T09:48:29.217Z,11.10
2022-10-11T09:51:05.837Z,11.20
2022-10-11T09:53:51.833Z,11.30
2022-10-11T09:56:20.458Z,11.30
2022-10-11T09:58:48.471Z,11.40
2022-10-11T10:01:25.273Z,11.50
2022-10-11T10:04:07.880Z,11.60
2022-10-11T10:06:37.731Z,11.70
2022-10-11T10:09:25.799Z,11.80
2022-10-11T10:11:54.219Z,11.90
2022-10-11T10:14:25.422Z,12.00
2022-10-11T10:17:02.564Z,12.00
2022-10-11T10:19:44.707Z,12.10
2022-10-11T10:22:20.234Z,12.20
2022-10-11T10:24:50.044Z,12.30
2022-10-11T10:27:22.098Z,12.40
2022-10-11T10:30:20.747Z,12.40
2022-10-11T10:32:53.874Z,12.50
2022-10-11T10:35:36.709Z,12.60
2022-10-11T10:38:26.273Z,12.70
2022-10-11T10:40:58.100Z,12.80
2022-10-11T10:43:29.069Z,12.90
2022-10-11T10:46:30.667Z,13.00
2022-10-11T10:49:48.346Z,13.10
2022-10-11T10:52:05.561Z,13.20
2022-10-11T10:54:46.422Z,13.30
2022-10-11T10:57:20.033Z,13.40
2022-10-11T11:00:04.956Z,13.50
2022-10-11T11:02:41.896Z,13.60
2022-10-11T11:05:21.037Z,13.70
2022-10-11T11:07:54.175Z,13.90
2022-10-11T11:10:30.618Z,13.90
2022-10-11T11:13:14.250Z,14.00
2022-10-11T11:15:47.301Z,14.10
2022-10-11T11:18:28.411Z,14.10
2022-10-11T11:21:14.197Z,14.20
2022-10-11T11:23:50.369Z,14.30
2022-10-11T11:26:28.434Z,14.40
2022-10-11T11:29:10.329Z,14.40
2022-10-11T11:31:55.120Z,14.50
2022-10-11T11:34:26.949Z,14.50
2022-10-11T11:36:58.915Z,14.60
2022-10-11T11:39:32.012Z,14.60
2022-10-11T11:42:08.680Z,14.60
2022-10-11T11:44:41.053Z,14.60
2022-10-11T11:47:17.828Z,14.60
2022-10-11T11:49:49.033Z,14.70
2022-10-11T11:52:26.233Z,14.70
2022-10-11T11:55:03.719Z,14.70
2022-10-11T11:57:54.324Z,14.80
2022-10-11T12:00:24.414Z,14.80
2022-10-11T12:02:56.382Z,14.80
2022-10-11T12:05:27.481Z,14.90
2022-10-11T12:07:59.518Z,14.90
2022-10-11T12:10:34.575Z,14.90
2022-10-11T12:13:22.766Z,15.00
2022-10-11T12:16:10.589Z,15.00
2022-10-11T12:18:53.062Z,15.10
2022-10-11T12:21:31.289Z,15.10
2022-10-11T12:24:00.486Z,15.20
2022-10-11T12:26:40.080Z,15.20
2022-10-11T12:29:46.792Z,15.30
2022-10-11T12:32:53.234Z,15.30
2022-10-11T12:35:43.391Z,15.40
2022-10-11T12:38:22.068Z,15.50
2022-10-11T12:40:51.825Z,15.50
2022-10-11T12:43:55.482Z,15.60
2022-10-11T12:47:06.335Z,15.60
2022-10-11T12:49:50.032Z,15.70
2022-10-11T12:52:33.629Z,15.70
2022-10-11T12:55:27.081Z,15.80
2022-10-11T12:58:24.930Z,15.80
2022-10-11T13:01:12.367Z,15.80
2022-10-11T13:03:42.841Z,15.90
2022-10-11T13:06:15.310Z,15.90
2022-10-11T13:08:48.483Z,15.90
2022-10-11T13:11:20.651Z,15.90
2022-10-11T13:13:53.612Z,15.90
2022-10-11T13:16:23.978Z,15.90
2022-10-11T13:18:57.375Z,15.90
2022-10-11T13:21:32.306Z,15.90
2022-10-11T13:24:04.285Z,15.90
2022-10-11T13:26:33.384Z,15.90
2022-10-11T13:29:01.481Z,15.90
2022-10-11T13:31:29.713Z,15.90
2022-10-11T13:34:00.009Z,15.90
2022-10-11T13:36:28.627Z,15.90
2022-10-11T13:38:58.990Z,16.00
2022-10-11T13:41:30.794Z,16.00
2022-10-11T13:44:00.556Z,16.00
2022-10-11T13:46:30.626Z,16.00
2022-10-11T13:49:03.249Z,16.00
2022-10-11T13:51:35.178Z,16.00
2022-10-11T13:54:05.568Z,16.00
2022-10-11T13:56:43.002Z,16.10
2022-10-11T13:59:18.794Z,16.10
2022-10-11T14:01:47.950Z,16.10
2022-10-11T14:04:17.592Z,16.10
2022-10-11T14:06:48.117Z,16.20
2022-10-11T14:09:23.112Z,16.20
2022-10-11T14:11:54.070Z,16.20
2022-10-11T14:14:48.646Z,16.20
2022-10-11T14:17:18.729Z,16.20
2022-10-11T14:19:48.771Z,16.20
2022-10-11T14:22:18.274Z,16.20
2022-10-11T14:24:48.899Z,16.20
2022-10-11T14:27:23.322Z,16.20
2022-10-11T14:30:12.916Z,16.30
2022-10-11T14:32:42.284Z,16.30
2022-10-11T14:35:17.050Z,16.30
2022-10-11T14:37:45.116Z,16.30
2022-10-11T14:40:16.417Z,16.30
2022-10-11T14:42:45.712Z,16.30
2022-10-11T14:45:13.698Z,16.30
2022-10-11T14:47:43.071Z,16.30
2022-10-11T14:50:23.833Z,16.30
2022-10-11T14:52:52.049Z,16.30
2022-10-11T14:55:19.937Z,16.30
2022-10-11T14:57:49.222Z,16.30
2022-10-11T15:00:22.266Z,16.30
2022-10-11T15:02:50.470Z,16.30
2022-10-11T15:05:18.389Z,16.30
2022-10-11T15:07:46.376Z,16.30
2022-10-11T15:10:21.828Z,16.20
2022-10-11T15:12:52.262Z,16.20
2022-10-11T15:15:22.925Z,16.20
2022-10-11T15:17:54.224Z,16.20
2022-10-11T15:20:26.726Z,16.20
2022-10-11T15:22:55.220Z,16.20
2022-10-11T15:25:23.608Z,16.20
2022-10-11T15:27:53.288Z,16.10
2022-10-11T15:30:24.369Z,16.10
2022-10-11T15:32:52.953Z,16.10
2022-10-11T15:35:21.590Z,16.10
2022-10-11T15:37:52.664Z,16.10
2022-10-11T15:40:22.594Z,16.10
2022-10-11T15:42:52.409Z,16.10
2022-10-11T15:45:21.397Z,16.10
2022-10-11T15:47:50.612Z,16.00
2022-10-11T15:50:33.982Z,16.00
2022-10-11T15:53:03.470Z,16.00
2022-10-11T15:55:32.352Z,15.90
2022-10-11T15:58:02.229Z,15.90
2022-10-11T16:00:31.126Z,15.90
2022-10-11T16:03:00.007Z,15.90
2022-10-11T16:05:28.811Z,15.80
2022-10-11T16:07:56.738Z,15.80
2022-10-11T16:10:24.739Z,15.80
2022-10-11T16:12:52.717Z,15.70
2022-10-11T16:15:22.015Z,15.70
2022-10-11T16:17:50.272Z,15.70
2022-10-11T16:20:22.330Z,15.60
2022-10-11T16:22:51.105Z,15.60
2022-10-11T16:25:19.255Z,15.60
2022-10-11T16:27:47.493Z,15.50
2022-10-11T16:30:17.029Z,15.50
2022-10-11T16:32:47.205Z,15.50
2022-10-11T16:35:17.699Z,15.40
2022-10-11T16:37:45.742Z,15.30
2022-10-11T16:40:15.851Z,15.30
2022-10-11T16:42:44.031Z,15.30
2022-10-11T16:45:13.157Z,15.20
2022-10-11T16:47:41.792Z,15.10
2022-10-11T16:50:12.818Z,15.10
2022-10-11T16:52:40.870Z,15.10
2022-10-11T16:55:09.522Z,15.00
2022-10-11T16:57:38.044Z,15.00
2022-10-11T17:00:08.591Z,14.90
2022-10-11T17:02:37.599Z,14.80
2022-10-11T17:05:06.078Z,14.80
2022-10-11T17:07:35.537Z,14.70
2022-10-11T17:10:03.540Z,14.60
2022-10-11T17:12:31.959Z,14.60
2022-10-11T17:14:59.846Z,14.50
2022-10-11T17:17:28.073Z,14.50
2022-10-11T17:19:55.982Z,14.40
2022-10-11T17:22:24.100Z,14.40
2022-10-11T17:24:53.412Z,14.30
2022-10-11T17:27:21.353Z,14.30
2022-10-11T17:29:49.265Z,14.20
2022-10-11T17:32:17.428Z,14.20
2022-10-11T17:34:45.389Z,14.10
2022-10-11T17:37:13.355Z,14.10
2022-10-11T17:39:41.263Z,14.00
2022-10-11T17:42:10.568Z,13.90
2022-10-11T17:44:38.670Z,13.90
2022-10-11T17:47:06.649Z,13.80
2022-10-11T17:49:34.597Z,13.80
2022-10-11T17:52:02.521Z,13.70
2022-10-11T17:54:30.445Z,13.70
2022-10-11T17:56:58.920Z,13.60
2022-10-11T17:59:28.731Z,13.60
2022-10-11T18:01:56.653Z,13.60
2022-10-11T18:04:26.973Z,13.50
2022-10-11T18:06:55.391Z,13.40
2022-10-11T18:09:24.639Z,13.40
2022-10-11T18:11:52.768Z,13.30
2022-10-11T18:14:21.196Z,13.30
2022-10-11T18:16:50.624Z,13.30
2022-10-11T18:19:18.630Z,13.20
2022-10-11T18:21:46.649Z,13.10
2022-10-11T18:24:16.837Z,13.10
2022-10-11T18:26:45.819Z,13.00
2022-10-11T18:29:14.006Z,13.00
2022-10-11T18:31:42.595Z,12.90
2022-10-11T18:34:14.763Z,12.90
2022-10-11T18:36:42.885Z,12.80
2022-10-11T18:39:14.062Z,12.80
2022-10-11T18:41:44.359Z,12.70
2022-10-11T18:44:14.985Z,12.60
2022-10-11T18:46:43.465Z,12.60
2022-10-11T18:49:13.433Z,12.60
2022-10-11T18:51:43.223Z,12.50
2022-10-11T18:54:16.661Z,12.40
2022-10-11T18:56:48.019Z,12.40
2022-10-11T18:59:15.977Z,12.40
2022-10-11T19:01:45.147Z,12.30
2022-10-11T19:04:16.743Z,12.20
2022-10-11T19:06:48.176Z,12.20
2022-10-11T19:09:21.365Z,12.20
2022-10-11T19:11:50.355Z,12.10
2022-10-11T19:14:20.417Z,12.10
2022-10-11T19:16:51.419Z,12.10
2022-10-11T19:19:23.815Z,12.00
2022-10-11T19:21:52.074Z,11.90
2022-10-11T19:24:22.033Z,11.90
2022-10-11T19:26:50.558Z,11.90
2022-10-11T19:29:21.425Z,11.80
2022-10-11T19:31:51.923Z,11.80
2022-10-11T19:34:21.880Z,11.80
2022-10-11T19:36:52.729Z,11.70
2022-10-11T19:39:22.358Z,11.60
2022-10-11T19:41:50.691Z,11.60
2022-10-11T19:44:18.942Z,11.60
2022-10-11T19:46:51.974Z,11.50
2022-10-11T19:49:24.701Z,11.50
2022-10-11T19:51:53.238Z,11.50
2022-10-11T19:54:21.270Z,11.40
2022-10-11T19:56:49.362Z,11.40
2022-10-11T19:59:17.627Z,11.40
2022-10-11T20:01:52.001Z,11.30
2022-10-11T20:04:50.481Z,11.30
2022-10-11T20:07:11.320Z,11.30
2022-10-11T20:09:39.345Z,11.20
2022-10-11T20:12:07.660Z,11.20
2022-10-11T20:14:35.597Z,11.20
2022-10-11T20:17:03.519Z,11.10
2022-10-11T20:19:32.748Z,11.10
2022-10-11T20:22:01.410Z,11.10
2022-10-11T20:24:33.401Z,11.00
2022-10-11T20:27:04.001Z,11.00
2022-10-11T20:29:34.132Z,11.00
2022-10-11T20:32:02.094Z,10.90
2022-10-11T20:34:30.578Z,10.90
2022-10-11T20:37:00.413Z,10.80
2022-10-11T20:39:28.306Z,10.80
2022-10-11T20:41:56.179Z,10.80
2022-10-11T20:44:24.126Z,10.70
2022-10-11T20:46:51.986Z,10.70
2022-10-11T20:49:20.674Z,10.70
2022-10-11T20:51:48.555Z,10.60
2022-10-11T20:54:17.986Z,10.60
2022-10-11T20:56:45.890Z,10.60
2022-10-11T20:59:13.957Z,10.60
2022-10-11T21:01:42.715Z,10.50
2022-10-11T21:04:18.462Z,10.50
2022-10-11T21:06:46.530Z,10.50
2022-10-11T21:09:16.551Z,10.40
2022-10-11T21:11:46.426Z,10.40
2022-10-11T21:14:14.352Z,10.40
2022-10-11T21:16:42.377Z,10.30
2022-10-11T21:19:14.948Z,10.30
2022-10-11T21:21:43.153Z,10.30
2022-10-11T21:24:11.381Z,10.30
2022-10-11T21:26:39.357Z,10.20
2022-10-11T21:29:08.694Z,10.20
2022-10-11T21:31:36.646Z,10.20
2022-10-11T21:34:05.103Z,10.10
2022-10-11T21:36:33.025Z,10.10
2022-10-11T21:39:00.898Z,10.10
2022-10-11T21:41:30.326Z,10.00
2022-10-11T21:43:58.985Z,10.00
2022-10-11T21:46:54.010Z,10.00
2022-10-11T21:49:17.955Z,10.00
2022-10-11T21:51:46.051Z,9.90
2022-10-11T21:54:13.920Z,9.90
2022-10-11T21:56:42.171Z,9.90
2022-10-11T21:59:12.331Z,9.90
2022-10-11T22:01:42.679Z,9.80
2022-10-11T22:04:11.024Z,9.80
2022-10-11T22:06:39.550Z,9.80
2022-10-11T22:09:08.554Z,9.80
2022-10-11T22:11:37.050Z,9.80
2022-10-11T22:14:05.788Z,9.70
2022-10-11T22:16:34.874Z,9.70
2022-10-11T22:19:04.338Z,9.70
2022-10-11T22:21:32.440Z,9.60
2022-10-11T22:24:00.673Z,9.60
2022-10-11T22:26:31.562Z,9.60
2022-10-11T22:29:00.237Z,9.60
2022-10-11T22:31:28.163Z,9.60
2022-10-11T22:33:56.562Z,9.60
2022-10-11T22:36:26.115Z,9.50
2022-10-11T22:38:54.676Z,9.50
2022-10-11T22:41:22.679Z,9.50
2022-10-11T22:43:50.753Z,9.50
2022-10-11T22:46:18.840Z,9.40
2022-10-11T22:48:46.727Z,9.40
2022-10-11T22:51:14.629Z,9.40
2022-10-11T22:53:43.897Z,9.40
2022-10-11T22:56:11.877Z,9.30
2022-10-11T22:58:39.867Z,9.30
2022-10-11T23:01:08.847Z,9.30
2022-10-11T23:03:36.867Z,9.30
2022-10-11T23:06:05.040Z,9.30
2022-10-11T23:08:32.965Z,9.30
2022-10-11T23:11:05.524Z,9.30
2022-10-11T23:13:33.692Z,9.20
2022-10-11T23:18:39.350Z,9.20
2022-10-11T23:21:08.257Z,9.20
2022-10-11T23:23:36.661Z,9.20
2022-10-11T23:26:08.174Z,9.20
2022-10-11T23:28:36.376Z,9.20
2022-10-11T23:31:08.240Z,9.10
2022-10-11T23:33:36.281Z,9.10
2022-10-11T23:36:04.900Z,9.10
2022-10-11T23:38:33.019Z,9.10
2022-10-11T23:41:00.947Z,9.10
2022-10-11T23:43:30.234Z,9.10
2022-10-11T23:45:58.135Z,9.00
2022-10-11T23:48:26.042Z,9.00
2022-10-11T23:50:53.965Z,9.00
2022-10-11T23:53:21.907Z,9.00
2022-10-11T23:55:49.835Z,9.00
2022-10-11T23:58:17.717Z,9.00
